Time;durP1;ratioP1;P1;durP2;ratioP2;P2;SDS_P1;SDS_P2;PMS_P1;PMS_P2;Temp;Humidity;BMP_temperature;BMP_pressure;BME280_temperature;BME280_humidity;BME280_pressure;Samples;Min_cycle;Max_cycle;Signal;HPM_P1;HPM_P2
2022/12/25 00:00:26;;;;;;;91.63;41.97;;;;;;;;;;5061903;28;20182;-79
2022/12/25 00:02:52;;;;;;;89.27;42.97;;;;;;;;;;5067154;28;21039;-81
2022/12/25 00:05:18;;;;;;;88.37;42.60;;;;;;;;;;5067776;28;20214;-80
2022/12/25 00:07:44;;;;;;;80.70;41.00;;;;;;;;;;5063047;28;20522;-80
2022/12/25 00:10:10;;;;;;;71.60;37.50;;;;;;;;;;5072710;28;20206;-81
2022/12/25 00:12:36;;;;;;;77.13;38.93;;;;;;;;;;5065738;28;20201;-80
2022/12/25 00:15:03;;;;;;;77.13;41.17;;;;;;;;;;5050369;28;20640;-80
2022/12/25 00:17:29;;;;;;;78.00;38.50;;;;;;;;;;5066360;28;20248;-80
2022/12/25 00:19:55;;;;;;;103.77;43.37;;;;;;;;;;5063198;28;20741;-81
2022/12/25 00:22:21;;;;;;;65.10;37.10;;;;;;;;;;5073967;28;20176;-80
2022/12/25 00:24:48;;;;;;;68.77;35.83;;;;;;;;;;5080359;28;20181;-81
2022/12/25 00:27:14;;;;;;;81.80;38.67;;;;;;;;;;5077372;28;20220;-81
2022/12/25 00:29:40;;;;;;;72.57;36.60;;;;;;;;;;5082497;28;20210;-80
2022/12/25 00:32:06;;;;;;;78.20;39.40;;;;;;;;;;5077751;28;20189;-80
2022/12/25 00:34:32;;;;;;;99.67;41.50;;;;;;;;;;5074223;28;20637;-80
2022/12/25 00:36:58;;;;;;;86.00;39.87;;;;;;;;;;5075695;28;20604;-80
2022/12/25 00:39:24;;;;;;;85.07;39.07;;;;;;;;;;5081766;28;20187;-80
2022/12/25 00:44:35;;;;;;;98.80;41.23;;;;;;;;;;5069589;28;20199;-82
2022/12/25 00:47:01;;;;;;;93.93;42.27;;;;;;;;;;5068684;28;20618;-80
2022/12/25 00:49:27;;;;;;;82.13;39.47;;;;;;;;;;5068269;28;20240;-81
2022/12/25 00:51:53;;;;;;;86.63;39.97;;;;;;;;;;5069218;28;20231;-80
2022/12/25 00:54:19;;;;;;;92.30;40.57;;;;;;;;;;5068942;28;20216;-80
2022/12/25 00:56:45;;;;;;;93.60;41.50;;;;;;;;;;5068707;28;20233;-81
2022/12/25 00:59:12;;;;;;;99.93;41.73;;;;;;;;;;5079583;28;20398;-80
2022/12/25 01:01:38;;;;;;;107.77;43.50;;;;;;;;;;5068340;28;20177;-80
2022/12/25 01:04:04;;;;;;;88.07;41.40;;;;;;;;;;5069105;28;20307;-81
2022/12/25 01:06:30;;;;;;;85.53;39.50;;;;;;;;;;5068441;28;20256;-80
2022/12/25 01:11:42;;;;;;;108.63;42.23;;;;;;;;;;5069562;28;20587;-80
2022/12/25 01:14:08;;;;;;;103.37;42.53;;;;;;;;;;5078199;28;20177;-81
2022/12/25 01:16:34;;;;;;;92.77;39.47;;;;;;;;;;5068755;28;20191;-80
2022/12/25 01:19:00;;;;;;;113.27;42.47;;;;;;;;;;5068944;28;20189;-81
2022/12/25 01:21:26;;;;;;;97.47;38.97;;;;;;;;;;5069071;28;20650;-79
2022/12/25 01:23:53;;;;;;;107.83;38.30;;;;;;;;;;5067023;28;20177;-80
2022/12/25 01:26:20;;;;;;;90.57;35.73;;;;;;;;;;5062669;28;20177;-80
2022/12/25 01:28:46;;;;;;;87.20;35.03;;;;;;;;;;5061163;28;20212;-80
2022/12/25 01:31:14;;;;;;;91.50;33.40;;;;;;;;;;5072656;28;20308;-80
2022/12/25 01:33:40;;;;;;;76.93;31.17;;;;;;;;;;5074278;28;20641;-80
2022/12/25 01:36:13;;;;;;;71.13;30.53;;;;;;;;;;5082091;28;20217;-80
2022/12/25 01:38:39;;;;;;;77.67;32.37;;;;;;;;;;5083122;28;20189;-80
2022/12/25 01:41:05;;;;;;;76.60;30.57;;;;;;;;;;5078900;28;20192;-80
2022/12/25 01:43:32;;;;;;;77.13;30.17;;;;;;;;;;5070885;28;20185;-80
2022/12/25 01:45:58;;;;;;;59.40;27.53;;;;;;;;;;5074843;28;20196;-79
2022/12/25 01:48:29;;;;;;;71.80;29.97;;;;;;;;;;5071053;28;20305;-80
2022/12/25 01:51:00;;;;;;;58.97;26.20;;;;;;;;;;5079524;28;20179;-80
2022/12/25 01:53:26;;;;;;;65.43;27.83;;;;;;;;;;5079585;28;20169;-80
2022/12/25 01:55:55;;;;;;;69.47;28.60;;;;;;;;;;5077618;28;20184;-80
2022/12/25 01:58:21;;;;;;;62.77;26.67;;;;;;;;;;5074183;28;20547;-80
2022/12/25 02:00:47;;;;;;;69.07;28.50;;;;;;;;;;5071181;28;20753;-79
2022/12/25 02:03:13;;;;;;;49.53;26.03;;;;;;;;;;5082946;28;20673;-80
2022/12/25 02:05:39;;;;;;;68.20;28.40;;;;;;;;;;5073795;28;20169;-80
2022/12/25 02:08:10;;;;;;;59.30;27.50;;;;;;;;;;5065764;28;20201;-80
2022/12/25 02:10:38;;;;;;;67.03;29.03;;;;;;;;;;5069792;28;20264;-80
2022/12/25 02:13:04;;;;;;;70.30;28.17;;;;;;;;;;5071237;28;20174;-80
2022/12/25 02:15:37;;;;;;;59.63;27.67;;;;;;;;;;5070984;28;20185;-80
2022/12/25 02:18:03;;;;;;;67.20;28.23;;;;;;;;;;5085620;28;20176;-80
2022/12/25 02:20:32;;;;;;;66.17;29.90;;;;;;;;;;5081810;28;20212;-81
2022/12/25 02:22:58;;;;;;;87.03;30.07;;;;;;;;;;5071307;28;20243;-80
2022/12/25 02:25:24;;;;;;;57.27;27.40;;;;;;;;;;5067290;28;20182;-80
2022/12/25 02:27:56;;;;;;;61.90;28.03;;;;;;;;;;5069231;28;20185;-80
2022/12/25 02:30:22;;;;;;;59.23;27.87;;;;;;;;;;5070378;28;20213;-80
2022/12/25 02:34:01;;;;;;;55.87;27.80;;;;;;;;;;5077751;28;20248;-80
2022/12/25 02:35:44;;;;;;;57.10;26.90;;;;;;;;;;5071851;28;20182;-80
2022/12/25 02:38:30;;;;;;;68.93;29.63;;;;;;;;;;5070140;28;20180;-80
2022/12/25 02:40:58;;;;;;;61.00;27.90;;;;;;;;;;5070507;28;20220;-80
2022/12/25 03:08:45;;;;;;;83.97;31.20;;;;;;;;;;5087649;28;20219;-80
2022/12/25 03:11:30;;;;;;;90.97;33.30;;;;;;;;;;5066876;28;20639;-80
2022/12/25 03:16:49;;;;;;;86.47;32.27;;;;;;;;;;5089172;28;20225;-80
2022/12/25 03:27:37;;;;;;;74.90;32.17;;;;;;;;;;5085475;28;20289;-79
2022/12/25 03:32:58;;;;;;;93.23;33.63;;;;;;;;;;5110605;28;20183;-80
2022/12/25 03:35:24;;;;;;;100.20;35.50;;;;;;;;;;5099817;28;20702;-81
2022/12/25 04:36:24;;;;;;;82.67;33.37;;;;;;;;;;4973206;28;20224;-80
2022/12/25 04:38:50;;;;;;;111.33;37.47;;;;;;;;;;4975643;28;20195;-80
2022/12/25 04:41:16;;;;;;;129.40;38.70;;;;;;;;;;4972275;28;20195;-80
2022/12/25 04:43:42;;;;;;;89.60;34.20;;;;;;;;;;5038402;28;20268;-80
2022/12/25 04:46:08;;;;;;;119.20;37.97;;;;;;;;;;5049797;28;20182;-81
2022/12/25 04:48:35;;;;;;;109.23;35.17;;;;;;;;;;5050674;28;20217;-80
2022/12/25 04:51:30;;;;;;;81.27;33.17;;;;;;;;;;5056148;28;20182;-80
2022/12/25 04:53:56;;;;;;;93.20;34.37;;;;;;;;;;4969766;28;20188;-80
2022/12/25 04:56:22;;;;;;;78.87;33.93;;;;;;;;;;4983059;28;20555;-80
2022/12/25 04:58:48;;;;;;;91.07;35.00;;;;;;;;;;4981067;28;20270;-80
2022/12/25 05:01:15;;;;;;;76.93;31.83;;;;;;;;;;4986967;28;20694;-80
2022/12/25 05:03:41;;;;;;;95.20;35.53;;;;;;;;;;4991429;28;20253;-80
2022/12/25 05:06:07;;;;;;;79.30;34.67;;;;;;;;;;4961859;28;20709;-80
2022/12/25 05:08:34;;;;;;;72.50;32.17;;;;;;;;;;4985093;28;20220;-81
2022/12/25 05:11:04;;;;;;;80.53;35.33;;;;;;;;;;4983199;28;20312;-80
2022/12/25 05:13:31;;;;;;;72.57;34.17;;;;;;;;;;4982700;28;20556;-80
2022/12/25 05:15:57;;;;;;;99.50;36.07;;;;;;;;;;4980695;28;20186;-80
2022/12/25 05:18:23;;;;;;;83.00;35.83;;;;;;;;;;4978061;28;20189;-80
2022/12/25 05:20:55;;;;;;;79.93;34.07;;;;;;;;;;4993524;28;21092;-80
2022/12/25 05:23:21;;;;;;;75.97;32.03;;;;;;;;;;4985625;28;20247;-80
2022/12/25 05:25:47;;;;;;;81.53;34.63;;;;;;;;;;4972028;28;20226;-80
2022/12/25 05:28:13;;;;;;;84.93;35.67;;;;;;;;;;4979039;28;20183;-80
2022/12/25 05:30:39;;;;;;;71.40;32.37;;;;;;;;;;5035833;28;20524;-80
2022/12/25 05:33:05;;;;;;;88.83;35.17;;;;;;;;;;5054235;28;20189;-80
2022/12/25 05:35:31;;;;;;;67.60;33.60;;;;;;;;;;5061123;28;20274;-81
2022/12/25 05:37:57;;;;;;;102.90;39.80;;;;;;;;;;5067074;28;20237;-81
2022/12/25 05:40:23;;;;;;;80.60;36.13;;;;;;;;;;5071170;28;20535;-80
2022/12/25 05:42:49;;;;;;;87.50;35.33;;;;;;;;;;5055275;28;20180;-80
2022/12/25 05:45:15;;;;;;;84.17;35.37;;;;;;;;;;5073100;28;20582;-79
2022/12/25 05:47:41;;;;;;;84.17;35.70;;;;;;;;;;5059937;28;20248;-80
2022/12/25 05:50:08;;;;;;;77.77;34.17;;;;;;;;;;5068387;28;20269;-80
2022/12/25 05:52:34;;;;;;;72.90;33.93;;;;;;;;;;5072711;28;20190;-80
2022/12/25 05:55:00;;;;;;;80.53;34.20;;;;;;;;;;5072085;28;20765;-80
2022/12/25 05:57:30;;;;;;;74.47;32.37;;;;;;;;;;5072484;28;20173;-81
2022/12/25 05:59:56;;;;;;;69.20;32.40;;;;;;;;;;5060823;28;20204;-80
2022/12/25 06:02:22;;;;;;;93.47;36.30;;;;;;;;;;5062228;28;20642;-79
2022/12/25 06:04:48;;;;;;;71.17;31.80;;;;;;;;;;5061985;28;20184;-80
2022/12/25 06:07:14;;;;;;;75.90;34.77;;;;;;;;;;5060715;28;20189;-80
2022/12/25 06:09:40;;;;;;;90.67;37.73;;;;;;;;;;5056076;28;20213;-80
2022/12/25 06:12:06;;;;;;;100.97;40.40;;;;;;;;;;5069846;28;20211;-80
2022/12/25 06:14:33;;;;;;;101.27;40.30;;;;;;;;;;5063846;28;20265;-80
2022/12/25 06:16:59;;;;;;;123.77;44.83;;;;;;;;;;5061682;28;20179;-80
2022/12/25 06:19:25;;;;;;;124.10;45.83;;;;;;;;;;5069843;28;20597;-80
2022/12/25 06:21:54;;;;;;;135.87;48.50;;;;;;;;;;5072907;28;20185;-80
2022/12/25 06:24:21;;;;;;;152.10;52.53;;;;;;;;;;5084623;28;20275;-80
2022/12/25 06:26:47;;;;;;;159.97;52.60;;;;;;;;;;5073886;28;20178;-80
2022/12/25 06:29:13;;;;;;;157.30;53.07;;;;;;;;;;5061265;28;20708;-80
2022/12/25 06:31:39;;;;;;;165.27;54.03;;;;;;;;;;5063898;28;20196;-80
2022/12/25 06:34:05;;;;;;;151.37;50.27;;;;;;;;;;5072269;28;20544;-80
2022/12/25 06:36:31;;;;;;;129.73;48.83;;;;;;;;;;5073284;28;20245;-81
2022/12/25 06:38:59;;;;;;;145.33;49.13;;;;;;;;;;5060452;28;20193;-80
2022/12/25 06:41:26;;;;;;;129.87;46.77;;;;;;;;;;5069140;28;20538;-80
2022/12/25 06:43:53;;;;;;;113.07;43.40;;;;;;;;;;5072157;28;20205;-80
2022/12/25 06:46:20;;;;;;;130.10;46.63;;;;;;;;;;5071766;28;20173;-80
2022/12/25 06:48:49;;;;;;;122.47;43.83;;;;;;;;;;5055205;28;20284;-80
2022/12/25 06:51:20;;;;;;;131.87;47.20;;;;;;;;;;5068305;28;20687;-80
2022/12/25 06:53:46;;;;;;;152.60;49.60;;;;;;;;;;5072723;28;20210;-80
2022/12/25 06:56:14;;;;;;;125.77;45.97;;;;;;;;;;5072187;28;20181;-80
2022/12/25 06:58:42;;;;;;;137.47;47.50;;;;;;;;;;5067994;28;20284;-80
2022/12/25 07:01:13;;;;;;;143.07;48.13;;;;;;;;;;5056785;28;20189;-81
2022/12/25 07:03:40;;;;;;;132.17;46.97;;;;;;;;;;5073688;28;20260;-80
2022/12/25 07:06:06;;;;;;;147.33;49.83;;;;;;;;;;5076054;28;20161;-80
2022/12/25 07:08:32;;;;;;;144.40;48.27;;;;;;;;;;5088520;28;20191;-80
2022/12/25 07:10:58;;;;;;;132.30;47.53;;;;;;;;;;5093223;28;20203;-81
2022/12/25 07:13:24;;;;;;;133.07;46.33;;;;;;;;;;5075034;28;20610;-80
2022/12/25 07:16:00;;;;;;;114.27;45.47;;;;;;;;;;5070846;28;20235;-80
2022/12/25 07:18:26;;;;;;;119.00;45.03;;;;;;;;;;5068963;28;20536;-79
2022/12/25 07:20:54;;;;;;;125.23;46.13;;;;;;;;;;5077133;28;20272;-80
2022/12/25 07:23:20;;;;;;;123.87;45.40;;;;;;;;;;5074510;28;20189;-81
2022/12/25 07:25:53;;;;;;;118.27;45.47;;;;;;;;;;5077189;28;20548;-80
2022/12/25 07:28:19;;;;;;;128.60;49.50;;;;;;;;;;5071581;28;20583;-80
2022/12/25 07:30:45;;;;;;;133.83;53.57;;;;;;;;;;5070869;28;20267;-80
2022/12/25 07:33:11;;;;;;;127.93;49.50;;;;;;;;;;5071542;28;20263;-80
2022/12/25 07:35:37;;;;;;;133.07;52.30;;;;;;;;;;5057916;28;20216;-81
2022/12/25 07:38:03;;;;;;;135.40;52.00;;;;;;;;;;5058436;28;20212;-80
2022/12/25 07:40:29;;;;;;;131.07;51.23;;;;;;;;;;5055711;28;20186;-80
2022/12/25 07:42:55;;;;;;;109.07;47.43;;;;;;;;;;5068562;28;20253;-80
2022/12/25 07:45:21;;;;;;;131.00;48.37;;;;;;;;;;5072468;28;20173;-80
2022/12/25 07:47:47;;;;;;;102.47;43.67;;;;;;;;;;5066934;28;20197;-80
2022/12/25 07:50:13;;;;;;;95.27;41.90;;;;;;;;;;5060300;28;20292;-80
2022/12/25 07:52:39;;;;;;;116.20;46.77;;;;;;;;;;5054842;28;20693;-80
2022/12/25 07:55:05;;;;;;;104.03;44.57;;;;;;;;;;5055899;28;20309;-80
2022/12/25 07:57:32;;;;;;;118.93;45.87;;;;;;;;;;5066307;28;20589;-79
2022/12/25 07:59:58;;;;;;;107.03;43.60;;;;;;;;;;5057220;28;20642;-81
2022/12/25 08:02:27;;;;;;;100.50;43.57;;;;;;;;;;5069238;28;20184;-81
2022/12/25 08:04:56;;;;;;;106.80;44.83;;;;;;;;;;5058563;28;20878;-80
2022/12/25 08:07:22;;;;;;;114.17;46.87;;;;;;;;;;5051284;28;20647;-80
2022/12/25 08:09:48;;;;;;;112.20;47.13;;;;;;;;;;5062291;28;20201;-80
2022/12/25 08:12:14;;;;;;;106.27;44.17;;;;;;;;;;5066022;28;20642;-80
2022/12/25 08:14:40;;;;;;;99.23;44.60;;;;;;;;;;5062320;28;20189;-80
2022/12/25 08:17:06;;;;;;;105.90;47.60;;;;;;;;;;5063609;28;20627;-80
2022/12/25 08:19:32;;;;;;;101.30;47.33;;;;;;;;;;5059988;28;20239;-80
2022/12/25 08:21:58;;;;;;;110.23;48.90;;;;;;;;;;5055949;28;20182;-80
2022/12/25 08:24:24;;;;;;;109.17;49.50;;;;;;;;;;5062102;28;20181;-80
2022/12/25 08:26:51;;;;;;;107.33;47.17;;;;;;;;;;5061207;28;20189;-79
2022/12/25 08:29:16;;;;;;;110.83;48.60;;;;;;;;;;5062781;28;20263;-81
2022/12/25 08:31:43;;;;;;;106.47;46.60;;;;;;;;;;5063040;28;20189;-80
2022/12/25 08:34:09;;;;;;;102.13;46.73;;;;;;;;;;5060782;28;20181;-80
2022/12/25 08:36:36;;;;;;;111.53;46.73;;;;;;;;;;5055812;28;20305;-80
2022/12/25 08:39:02;;;;;;;102.57;45.87;;;;;;;;;;5064901;28;20177;-80
2022/12/25 08:41:28;;;;;;;87.17;42.20;;;;;;;;;;5065782;28;20267;-80
2022/12/25 08:43:54;;;;;;;95.80;42.33;;;;;;;;;;5060939;28;20626;-80
2022/12/25 08:46:20;;;;;;;95.07;43.77;;;;;;;;;;5062159;28;20189;-81
2022/12/25 08:48:48;;;;;;;91.40;42.77;;;;;;;;;;5063887;28;20204;-80
2022/12/25 08:51:15;;;;;;;93.63;42.17;;;;;;;;;;5067736;28;20207;-80
2022/12/25 08:53:42;;;;;;;94.13;42.27;;;;;;;;;;5060926;28;20707;-81
2022/12/25 08:56:08;;;;;;;98.33;42.43;;;;;;;;;;5062224;28;20177;-80
2022/12/25 08:58:34;;;;;;;81.80;41.00;;;;;;;;;;5061336;28;20581;-79
2022/12/25 09:01:00;;;;;;;87.97;41.47;;;;;;;;;;5063035;28;20193;-79
2022/12/25 09:03:26;;;;;;;93.80;42.70;;;;;;;;;;5063001;28;20169;-81
2022/12/25 09:05:53;;;;;;;93.37;42.93;;;;;;;;;;5061646;28;20200;-80
2022/12/25 09:08:20;;;;;;;85.53;43.17;;;;;;;;;;5059109;28;20947;-80
2022/12/25 09:10:46;;;;;;;85.17;43.37;;;;;;;;;;5055518;28;20201;-80
2022/12/25 09:13:12;;;;;;;94.13;43.50;;;;;;;;;;5071952;28;20191;-80
2022/12/25 09:15:39;;;;;;;96.40;41.97;;;;;;;;;;5057593;28;20177;-80
2022/12/25 09:18:05;;;;;;;79.50;40.67;;;;;;;;;;5065308;28;20540;-80
2022/12/25 09:20:31;;;;;;;80.37;39.70;;;;;;;;;;5064107;28;20190;-80
2022/12/25 09:22:57;;;;;;;79.03;38.23;;;;;;;;;;5065067;28;20640;-80
2022/12/25 09:25:23;;;;;;;82.27;40.20;;;;;;;;;;5070142;28;20185;-80
2022/12/25 09:27:49;;;;;;;85.43;40.63;;;;;;;;;;5060822;28;20197;-80
2022/12/25 09:30:15;;;;;;;90.23;42.07;;;;;;;;;;5069853;28;20205;-80
2022/12/25 09:32:41;;;;;;;75.97;38.63;;;;;;;;;;5062691;28;20654;-79
2022/12/25 09:35:08;;;;;;;82.00;40.90;;;;;;;;;;5065889;28;20212;-80
2022/12/25 09:37:34;;;;;;;73.27;38.13;;;;;;;;;;5064843;28;20692;-80
2022/12/25 09:40:00;;;;;;;81.13;39.03;;;;;;;;;;5055076;28;20203;-80
2022/12/25 09:42:30;;;;;;;92.87;43.03;;;;;;;;;;5066411;28;20170;-80
2022/12/25 09:44:58;;;;;;;72.70;38.73;;;;;;;;;;5069655;28;20185;-80
2022/12/25 09:47:30;;;;;;;76.57;39.10;;;;;;;;;;5066030;28;20727;-80
2022/12/25 09:50:12;;;;;;;69.50;36.97;;;;;;;;;;5063582;28;20221;-80
2022/12/25 09:52:57;;;;;;;73.57;37.33;;;;;;;;;;5064472;28;20190;-80
2022/12/25 09:55:24;;;;;;;79.23;38.30;;;;;;;;;;5062490;28;20181;-81
2022/12/25 09:57:55;;;;;;;82.27;38.87;;;;;;;;;;5067176;28;20206;-80
2022/12/25 10:00:22;;;;;;;78.60;37.70;;;;;;;;;;5064885;28;20183;-80
2022/12/25 10:03:09;;;;;;;83.57;39.00;;;;;;;;;;5057069;28;20212;-80
2022/12/25 10:05:54;;;;;;;77.70;40.13;;;;;;;;;;5066519;28;20589;-80
2022/12/25 10:08:23;;;;;;;91.73;41.87;;;;;;;;;;5063083;28;20183;-83
2022/12/25 10:10:51;;;;;;;70.83;38.60;;;;;;;;;;5065173;28;20197;-82
2022/12/25 10:13:23;;;;;;;76.17;40.13;;;;;;;;;;5086881;28;20204;-81
2022/12/25 10:15:55;;;;;;;89.17;42.17;;;;;;;;;;5067633;28;20197;-80
2022/12/25 10:18:34;;;;;;;83.90;40.40;;;;;;;;;;5061615;28;20188;-81
2022/12/25 10:21:01;;;;;;;88.50;42.87;;;;;;;;;;5079246;28;20576;-82
2022/12/25 10:23:30;;;;;;;73.23;39.03;;;;;;;;;;5062312;28;20553;-79
2022/12/25 10:25:56;;;;;;;65.33;36.40;;;;;;;;;;5067223;28;20181;-80
2022/12/25 10:28:25;;;;;;;74.80;39.37;;;;;;;;;;5079195;28;20185;-80
2022/12/25 10:30:52;;;;;;;81.70;40.53;;;;;;;;;;5090246;28;20194;-81
2022/12/25 10:33:18;;;;;;;77.50;38.77;;;;;;;;;;5062800;28;20281;-81
2022/12/25 10:35:44;;;;;;;71.67;39.37;;;;;;;;;;5065270;28;20189;-81
2022/12/25 10:38:12;;;;;;;66.37;38.03;;;;;;;;;;5064709;28;20242;-80
2022/12/25 10:40:57;;;;;;;61.83;34.80;;;;;;;;;;5062424;28;20181;-82
2022/12/25 10:43:28;;;;;;;71.37;36.23;;;;;;;;;;5067269;28;20818;-79
2022/12/25 10:45:54;;;;;;;60.60;35.57;;;;;;;;;;5082040;28;20214;-79
2022/12/25 10:48:28;;;;;;;56.43;33.37;;;;;;;;;;5060706;28;20280;-83
2022/12/25 10:50:55;;;;;;;61.93;37.10;;;;;;;;;;5067436;28;20263;-83
2022/12/25 10:53:23;;;;;;;56.33;33.33;;;;;;;;;;5063302;28;20205;-79
2022/12/25 10:56:03;;;;;;;64.93;37.20;;;;;;;;;;5059078;28;20264;-82
2022/12/25 10:58:29;;;;;;;52.10;33.13;;;;;;;;;;5053715;28;20181;-80
2022/12/25 11:00:59;;;;;;;57.63;34.80;;;;;;;;;;5069644;28;20169;-81
2022/12/25 11:03:30;;;;;;;50.07;31.13;;;;;;;;;;5066305;28;20181;-81
2022/12/25 11:05:57;;;;;;;59.90;31.63;;;;;;;;;;5072181;28;20180;-82
2022/12/25 11:08:25;;;;;;;52.73;31.60;;;;;;;;;;5071176;28;20181;-82
2022/12/25 11:10:58;;;;;;;58.40;34.43;;;;;;;;;;5072306;28;20211;-82
2022/12/25 11:13:26;;;;;;;51.57;30.90;;;;;;;;;;5056736;28;20235;-79
2022/12/25 11:16:18;;;;;;;59.30;32.43;;;;;;;;;;5052652;28;20173;-82
2022/12/25 11:18:48;;;;;;;54.37;30.73;;;;;;;;;;5050883;28;20186;-81
2022/12/25 11:21:21;;;;;;;54.67;30.83;;;;;;;;;;5067966;28;20193;-80
2022/12/25 11:23:48;;;;;;;50.93;30.47;;;;;;;;;;5058421;28;20178;-82
2022/12/25 11:27:05;;;;;;;62.03;33.10;;;;;;;;;;5084844;27;20615;-81
2022/12/25 11:29:43;;;;;;;51.37;30.30;;;;;;;;;;5078180;28;20208;-81
2022/12/25 11:32:24;;;;;;;61.43;32.07;;;;;;;;;;5061738;28;20185;-80
2022/12/25 11:34:51;;;;;;;53.37;30.93;;;;;;;;;;5075788;28;20892;-81
2022/12/25 11:37:19;;;;;;;63.43;29.67;;;;;;;;;;5082080;28;20621;-83
2022/12/25 11:39:45;;;;;;;55.20;29.50;;;;;;;;;;5072270;28;20676;-83
2022/12/25 11:42:11;;;;;;;60.50;31.80;;;;;;;;;;5077631;28;20191;-82
2022/12/25 11:44:40;;;;;;;52.03;29.37;;;;;;;;;;5069526;28;20181;-83
2022/12/25 11:47:16;;;;;;;63.43;34.93;;;;;;;;;;5071927;28;20564;-83
2022/12/25 11:49:47;;;;;;;59.70;34.37;;;;;;;;;;5077444;28;20205;-82
2022/12/25 11:52:13;;;;;;;63.17;36.73;;;;;;;;;;5081008;28;20181;-83
2022/12/25 11:55:06;;;;;;;65.70;34.53;;;;;;;;;;5070855;28;20263;-83
2022/12/25 11:57:33;;;;;;;65.43;32.97;;;;;;;;;;5047028;28;20181;-82
2022/12/25 12:00:05;;;;;;;66.03;34.83;;;;;;;;;;5042659;28;20688;-81
2022/12/25 12:02:33;;;;;;;70.67;37.23;;;;;;;;;;5043446;28;20198;-81
2022/12/25 12:05:20;;;;;;;65.93;35.70;;;;;;;;;;5035100;28;20219;-81
2022/12/25 12:07:52;;;;;;;87.80;53.03;;;;;;;;;;5015639;28;20204;-82
2022/12/25 12:10:27;;;;;;;82.53;45.60;;;;;;;;;;5031077;28;20261;-82
2022/12/25 12:13:11;;;;;;;83.60;44.97;;;;;;;;;;5066649;28;20188;-82
2022/12/25 12:15:40;;;;;;;87.07;43.73;;;;;;;;;;5046934;28;20243;-80
2022/12/25 12:18:18;;;;;;;74.97;40.37;;;;;;;;;;5034200;28;20685;-81
2022/12/25 12:20:44;;;;;;;75.63;38.33;;;;;;;;;;5036444;28;20217;-80
2022/12/25 12:23:14;;;;;;;71.00;38.57;;;;;;;;;;5040392;28;20250;-82
2022/12/25 12:25:41;;;;;;;80.67;39.37;;;;;;;;;;5045236;28;20229;-83
2022/12/25 12:28:12;;;;;;;84.90;40.37;;;;;;;;;;5032948;28;20630;-82
2022/12/25 12:30:38;;;;;;;78.17;38.20;;;;;;;;;;5031233;28;20195;-83
2022/12/25 12:33:05;;;;;;;76.17;40.70;;;;;;;;;;5041168;28;20332;-83
2022/12/25 12:35:36;;;;;;;75.00;38.63;;;;;;;;;;5072015;28;20218;-82
2022/12/25 12:38:02;;;;;;;80.97;38.53;;;;;;;;;;5071956;28;20181;-80
2022/12/25 12:40:32;;;;;;;82.80;40.30;;;;;;;;;;5068416;28;20173;-81
2022/12/25 12:42:58;;;;;;;84.87;40.63;;;;;;;;;;5065122;28;20212;-81
2022/12/25 12:45:33;;;;;;;78.10;39.47;;;;;;;;;;5054766;28;20249;-82
2022/12/25 12:47:59;;;;;;;96.37;45.67;;;;;;;;;;5055312;28;20216;-81
2022/12/25 12:50:39;;;;;;;87.33;41.47;;;;;;;;;;5044554;28;20197;-81
2022/12/25 12:53:38;;;;;;;83.33;40.43;;;;;;;;;;5044936;28;20263;-82
2022/12/25 12:56:10;;;;;;;85.30;40.30;;;;;;;;;;5026838;28;20222;-82
2022/12/25 12:58:39;;;;;;;98.67;42.03;;;;;;;;;;5015631;28;20190;-84
2022/12/25 13:01:17;;;;;;;98.60;41.73;;;;;;;;;;5032218;28;20654;-80
2022/12/25 13:03:49;;;;;;;95.90;42.60;;;;;;;;;;5029091;28;20175;-83
2022/12/25 13:06:21;;;;;;;103.43;44.77;;;;;;;;;;5024465;28;20226;-83
2022/12/25 13:09:05;;;;;;;99.93;43.63;;;;;;;;;;5028667;28;20189;-81
2022/12/25 13:11:34;;;;;;;110.50;46.27;;;;;;;;;;5028832;28;20214;-82
2022/12/25 13:14:02;;;;;;;110.13;52.77;;;;;;;;;;5031402;28;20265;-83
2022/12/25 13:16:39;;;;;;;142.20;62.83;;;;;;;;;;5031692;28;20280;-81
2022/12/25 13:19:07;;;;;;;114.73;51.90;;;;;;;;;;5015380;28;20186;-80
2022/12/25 13:21:33;;;;;;;133.50;54.83;;;;;;;;;;5031886;28;20206;-82
2022/12/25 13:24:00;;;;;;;147.83;61.27;;;;;;;;;;5015534;28;20229;-81
2022/12/25 13:26:27;;;;;;;138.30;66.90;;;;;;;;;;5031707;28;20269;-81
2022/12/25 13:28:54;;;;;;;130.33;54.43;;;;;;;;;;5014962;28;20187;-81
2022/12/25 13:31:28;;;;;;;127.13;53.80;;;;;;;;;;5022678;28;20654;-83
2022/12/25 13:33:57;;;;;;;114.93;51.87;;;;;;;;;;5069867;28;20181;-82
2022/12/25 13:36:23;;;;;;;128.10;49.07;;;;;;;;;;5083749;28;20275;-82
2022/12/25 13:38:51;;;;;;;108.53;45.47;;;;;;;;;;5062405;28;20260;-82
2022/12/25 13:44:14;;;;;;;129.90;49.67;;;;;;;;;;5057733;28;20192;-81
2022/12/25 13:46:40;;;;;;;114.27;47.93;;;;;;;;;;5049273;28;20218;-82
2022/12/25 13:49:09;;;;;;;110.77;49.67;;;;;;;;;;5055928;28;20178;-81
2022/12/25 13:51:35;;;;;;;136.90;51.67;;;;;;;;;;5085969;28;20189;-82
2022/12/25 13:54:05;;;;;;;135.93;51.90;;;;;;;;;;5089222;28;20186;-80
2022/12/25 13:56:32;;;;;;;132.63;55.40;;;;;;;;;;5095208;28;20190;-80
2022/12/25 13:58:58;;;;;;;136.33;54.90;;;;;;;;;;5068237;28;20594;-83
2022/12/25 14:01:24;;;;;;;138.00;53.53;;;;;;;;;;5053404;28;20573;-82
2022/12/25 14:03:50;;;;;;;125.10;49.47;;;;;;;;;;5052302;28;20176;-82
2022/12/25 14:06:21;;;;;;;134.57;50.63;;;;;;;;;;5054773;28;20213;-83
2022/12/25 14:08:47;;;;;;;143.97;52.13;;;;;;;;;;5050556;28;20584;-81
2022/12/25 14:11:19;;;;;;;124.97;51.73;;;;;;;;;;5056280;28;20197;-83
2022/12/25 14:13:46;;;;;;;144.47;54.80;;;;;;;;;;5059597;28;20552;-81
2022/12/25 14:16:14;;;;;;;136.13;54.00;;;;;;;;;;5064942;28;20656;-84
2022/12/25 14:18:49;;;;;;;111.70;49.53;;;;;;;;;;5052539;28;20638;-82
2022/12/25 14:21:22;;;;;;;138.27;53.47;;;;;;;;;;5062010;28;20187;-81
2022/12/25 14:23:49;;;;;;;125.60;51.20;;;;;;;;;;5060432;28;20184;-81
2022/12/25 14:26:19;;;;;;;147.60;56.50;;;;;;;;;;5054517;28;20224;-82
2022/12/25 14:28:50;;;;;;;125.27;52.17;;;;;;;;;;5064139;28;20194;-83
2022/12/25 14:31:16;;;;;;;173.70;73.27;;;;;;;;;;5054520;28;20177;-83
2022/12/25 14:33:42;;;;;;;187.37;77.87;;;;;;;;;;5032598;28;20178;-82
2022/12/25 14:36:10;;;;;;;160.60;68.40;;;;;;;;;;5048518;28;20211;-83
2022/12/25 14:38:39;;;;;;;161.93;61.43;;;;;;;;;;5047989;28;20290;-82
2022/12/25 14:41:16;;;;;;;142.60;59.53;;;;;;;;;;5032532;28;20681;-82
2022/12/25 14:43:51;;;;;;;152.17;60.70;;;;;;;;;;5033008;28;20590;-81
2022/12/25 14:46:24;;;;;;;151.20;58.13;;;;;;;;;;5055342;28;20201;-81
2022/12/25 14:49:00;;;;;;;177.50;60.60;;;;;;;;;;5060403;28;20182;-81
2022/12/25 14:51:26;;;;;;;139.03;54.63;;;;;;;;;;5051180;28;20181;-82
2022/12/25 14:53:56;;;;;;;132.20;51.43;;;;;;;;;;5050530;28;20649;-81
2022/12/25 14:56:23;;;;;;;146.43;53.43;;;;;;;;;;5049139;28;20323;-83
2022/12/25 14:58:54;;;;;;;112.37;46.53;;;;;;;;;;5053020;28;20270;-83
2022/12/25 15:01:23;;;;;;;164.23;54.03;;;;;;;;;;5050247;28;20187;-81
2022/12/25 15:03:49;;;;;;;130.30;50.83;;;;;;;;;;5044883;28;20174;-80
2022/12/25 15:06:19;;;;;;;133.67;51.73;;;;;;;;;;5054476;28;20685;-80
2022/12/25 15:09:02;;;;;;;182.90;57.20;;;;;;;;;;5047267;28;20185;-80
2022/12/25 15:11:28;;;;;;;140.83;52.77;;;;;;;;;;5050269;28;20209;-80
2022/12/25 15:13:54;;;;;;;153.23;52.27;;;;;;;;;;5048516;28;20197;-80
2022/12/25 15:16:25;;;;;;;147.73;53.40;;;;;;;;;;5049399;28;20173;-79
2022/12/25 15:18:52;;;;;;;158.20;54.97;;;;;;;;;;5044992;28;20182;-80
2022/12/25 15:21:32;;;;;;;155.60;55.57;;;;;;;;;;5053762;28;20656;-79
2022/12/25 15:23:59;;;;;;;161.33;55.27;;;;;;;;;;5055700;28;20704;-82
2022/12/25 15:26:26;;;;;;;156.63;56.47;;;;;;;;;;5050324;28;20558;-81
2022/12/25 15:28:52;;;;;;;178.23;59.63;;;;;;;;;;5049385;28;20216;-82
2022/12/25 15:31:21;;;;;;;149.10;55.20;;;;;;;;;;5052050;28;20631;-80
2022/12/25 15:33:47;;;;;;;199.83;57.63;;;;;;;;;;5049092;28;20236;-80
2022/12/25 15:36:13;;;;;;;144.43;56.47;;;;;;;;;;5054955;28;20546;-79
2022/12/25 15:38:39;;;;;;;152.40;55.67;;;;;;;;;;5055634;28;20579;-81
2022/12/25 15:42:09;;;;;;;148.27;56.83;;;;;;;;;;5062408;28;20228;-82
2022/12/25 15:43:57;;;;;;;229.17;65.93;;;;;;;;;;5033667;28;20200;-82
2022/12/25 15:46:23;;;;;;;199.83;66.33;;;;;;;;;;5052696;28;20298;-80
2022/12/25 15:48:49;;;;;;;164.53;58.97;;;;;;;;;;5066539;28;20179;-80
2022/12/25 15:51:15;;;;;;;175.87;61.73;;;;;;;;;;5055744;28;20181;-79
2022/12/25 15:53:41;;;;;;;233.67;69.07;;;;;;;;;;5050722;28;20181;-80
2022/12/25 15:56:09;;;;;;;318.43;78.13;;;;;;;;;;5045463;28;20193;-78
2022/12/25 15:58:35;;;;;;;346.57;82.00;;;;;;;;;;5062136;28;20180;-80
2022/12/25 16:01:01;;;;;;;372.53;78.10;;;;;;;;;;5056902;28;20603;-81
2022/12/25 16:03:27;;;;;;;248.10;70.13;;;;;;;;;;5051899;28;20235;-82
2022/12/25 16:05:53;;;;;;;253.57;68.63;;;;;;;;;;5053308;28;20217;-80